Time;durP1;ratioP1;P1;durP2;ratioP2;P2;SDS_P1;SDS_P2;PMS_P1;PMS_P2;Temp;Humidity;BMP_temperature;BMP_pressure;BME280_temperature;BME280_humidity;BME280_pressure;Samples;Min_cycle;Max_cycle;Signal;HPM_P1;HPM_P2
2024/03/05 00:00:09;;;;;;;10.27;2.80;;;;;;;5.23;100.00;99726.50;4990835;28;20026;-70
2024/03/05 00:02:37;;;;;;;7.82;2.20;;;;;;;5.22;100.00;99726.78;4950344;28;20041;-69
2024/03/05 00:05:04;;;;;;;8.40;2.60;;;;;;;5.15;100.00;99718.81;4979818;28;20037;-69
2024/03/05 00:07:29;;;;;;;7.05;2.13;;;;;;;5.11;100.00;99715.78;4997586;28;20053;-69
2024/03/05 00:09:55;;;;;;;7.22;2.30;;;;;;;5.06;100.00;99715.78;4960502;28;20041;-69
2024/03/05 00:12:20;;;;;;;6.97;2.30;;;;;;;5.02;100.00;99716.63;5012924;28;20030;-69
2024/03/05 00:14:46;;;;;;;7.53;2.00;;;;;;;4.98;100.00;99719.09;4996145;28;20030;-69
2024/03/05 00:17:12;;;;;;;7.05;2.47;;;;;;;4.89;100.00;99729.84;4996057;28;20031;-69
2024/03/05 00:19:38;;;;;;;6.18;2.00;;;;;;;4.84;100.00;99731.75;4992337;28;20027;-70
2024/03/05 00:22:03;;;;;;;11.15;2.25;;;;;;;4.83;100.00;99725.44;4956746;28;20037;-69
2024/03/05 00:24:29;;;;;;;11.00;2.13;;;;;;;4.78;100.00;99743.88;4992662;28;20033;-69
2024/03/05 00:26:56;;;;;;;6.25;1.60;;;;;;;4.73;100.00;99741.13;4989084;28;20040;-70
2024/03/05 00:29:21;;;;;;;6.30;2.10;;;;;;;4.66;100.00;99736.72;4992161;28;20459;-69
2024/03/05 00:31:47;;;;;;;6.60;2.00;;;;;;;4.63;100.00;99741.94;4972746;28;20093;-69
2024/03/05 00:34:13;;;;;;;6.97;1.88;;;;;;;4.58;100.00;99745.50;4967377;28;20034;-68
2024/03/05 00:36:38;;;;;;;3.35;1.40;;;;;;;4.59;100.00;99743.56;4988995;28;20049;-69
2024/03/05 00:39:04;;;;;;;4.15;1.80;;;;;;;4.54;100.00;99740.81;5007679;28;20110;-69
2024/03/05 00:41:29;;;;;;;5.78;1.85;;;;;;;4.53;100.00;99748.25;4976871;28;20045;-69
2024/03/05 00:43:55;;;;;;;6.22;2.15;;;;;;;4.51;100.00;99744.13;5001969;28;20034;-69
2024/03/05 00:46:20;;;;;;;7.13;1.65;;;;;;;4.48;100.00;99745.47;5001778;28;20034;-68
2024/03/05 00:48:46;;;;;;;5.18;1.73;;;;;;;4.47;100.00;99755.66;4962162;28;20083;-68
2024/03/05 00:51:12;;;;;;;6.53;1.65;;;;;;;4.46;100.00;99753.19;4959754;28;20051;-69
2024/03/05 00:53:38;;;;;;;9.52;1.80;;;;;;;4.46;100.00;99750.44;4958416;28;20031;-69
2024/03/05 00:56:03;;;;;;;6.53;1.70;;;;;;;4.46;100.00;99747.69;4971391;28;20105;-69
2024/03/05 00:58:29;;;;;;;4.63;1.80;;;;;;;4.50;100.00;99757.03;4975552;28;20041;-69
2024/03/05 01:00:54;;;;;;;4.68;1.48;;;;;;;4.49;100.00;99752.66;4983988;28;20491;-69
2024/03/05 01:03:20;;;;;;;5.22;1.95;;;;;;;4.50;100.00;99759.78;4995071;28;20034;-69
2024/03/05 01:05:46;;;;;;;7.68;1.90;;;;;;;4.51;100.00;99755.09;5011436;28;20034;-69
2024/03/05 01:08:12;;;;;;;3.95;1.50;;;;;;;4.51;100.00;99766.94;4963088;28;20042;-69
2024/03/05 01:10:39;;;;;;;5.68;1.70;;;;;;;4.53;100.00;99753.75;4978910;28;20038;-69
2024/03/05 01:13:04;;;;;;;6.30;1.65;;;;;;;4.55;100.00;99770.81;4962803;28;20510;-69
2024/03/05 01:15:30;;;;;;;7.80;1.90;;;;;;;4.56;100.00;99763.38;4962854;28;20030;-69
2024/03/05 01:17:57;;;;;;;5.32;1.55;;;;;;;4.59;100.00;99762.81;4975615;28;20411;-69
2024/03/05 01:20:22;;;;;;;4.88;1.52;;;;;;;4.58;100.00;99767.50;4956241;28;20030;-68
2024/03/05 01:22:48;;;;;;;9.73;1.80;;;;;;;4.58;100.00;99773.00;4978552;28;20089;-69
2024/03/05 01:25:16;;;;;;;8.18;1.70;;;;;;;4.58;100.00;99766.69;4994774;28;20034;-68
2024/03/05 01:27:42;;;;;;;9.05;2.17;;;;;;;4.58;100.00;99778.50;4991452;28;20491;-69
2024/03/05 01:30:14;;;;;;;5.78;1.70;;;;;;;4.60;100.00;99776.31;4972064;28;20056;-69
2024/03/05 01:32:46;;;;;;;7.22;1.90;;;;;;;4.62;100.00;99774.09;4990574;28;20407;-69
2024/03/05 01:35:12;;;;;;;6.65;1.95;;;;;;;4.63;100.00;99774.94;4978585;28;20030;-69
2024/03/05 01:37:41;;;;;;;5.57;1.70;;;;;;;4.64;100.00;99771.91;4974858;28;20085;-68
2024/03/05 01:40:08;;;;;;;9.77;1.83;;;;;;;4.64;100.00;99774.66;4959002;28;20018;-69
2024/03/05 01:42:34;;;;;;;11.43;1.80;;;;;;;4.68;100.00;99784.03;4996218;28;20027;-68
2024/03/05 01:45:00;;;;;;;5.50;1.65;;;;;;;4.69;100.00;99782.09;5009733;28;20046;-69
2024/03/05 01:47:26;;;;;;;6.43;1.60;;;;;;;4.70;100.00;99781.00;4992015;28;20039;-69
2024/03/05 01:49:51;;;;;;;9.05;1.80;;;;;;;4.72;100.00;99784.31;4986630;28;20027;-69
2024/03/05 01:52:17;;;;;;;5.05;1.30;;;;;;;4.74;100.00;99795.06;4989691;28;20093;-69
2024/03/05 01:54:42;;;;;;;6.97;2.28;;;;;;;4.73;100.00;99794.19;4972687;28;20041;-69
2024/03/05 01:57:09;;;;;;;3.05;1.30;;;;;;;4.73;100.00;99793.38;4978194;28;20034;-69
2024/03/05 01:59:38;;;;;;;5.10;1.30;;;;;;;4.75;100.00;99793.94;4992005;28;20106;-69
2024/03/05 02:02:05;;;;;;;8.20;1.58;;;;;;;4.77;100.00;99797.25;4982628;28;20038;-69
2024/03/05 02:04:31;;;;;;;4.03;1.20;;;;;;;4.73;100.00;99794.19;4979807;28;20027;-69
2024/03/05 02:06:56;;;;;;;7.85;1.15;;;;;;;4.74;100.00;99793.13;4996767;28;20041;-69
2024/03/05 02:09:22;;;;;;;3.42;0.98;;;;;;;4.74;100.00;99800.56;4976946;28;20031;-69
2024/03/05 02:11:47;;;;;;;5.93;0.98;;;;;;;4.74;100.00;99787.63;4978804;28;20595;-69
2024/03/05 02:14:13;;;;;;;3.78;1.25;;;;;;;4.74;100.00;99795.06;4960822;28;20031;-69
2024/03/05 02:16:39;;;;;;;3.17;0.88;;;;;;;4.74;100.00;99790.38;4986770;28;20031;-69
2024/03/05 02:19:04;;;;;;;5.25;1.20;;;;;;;4.75;100.00;99796.69;5007911;28;20030;-69
2024/03/05 02:21:31;;;;;;;2.70;0.80;;;;;;;4.74;100.00;99800.56;4994835;28;20062;-69
2024/03/05 02:23:57;;;;;;;4.40;1.00;;;;;;;4.75;100.00;99799.44;4976893;28;20058;-69
2024/03/05 02:26:24;;;;;;;5.15;1.33;;;;;;;4.76;100.00;99806.59;4985192;28;20061;-69
2024/03/05 02:28:49;;;;;;;4.07;0.80;;;;;;;4.73;100.00;99805.19;4965630;28;20018;-69
2024/03/05 02:31:15;;;;;;;2.97;0.90;;;;;;;4.73;100.00;99799.69;4994767;28;20058;-69
2024/03/05 02:33:44;;;;;;;5.88;1.08;;;;;;;4.73;100.00;99801.63;4997460;28;20441;-68
2024/03/05 02:36:09;;;;;;;2.70;0.75;;;;;;;4.73;100.00;99804.38;5018330;28;20026;-69
2024/03/05 02:38:35;;;;;;;2.78;0.70;;;;;;;4.72;100.00;99808.25;4981609;28;20541;-69
2024/03/05 02:41:00;;;;;;;2.47;0.85;;;;;;;4.70;100.00;99812.06;4998121;28;20038;-69
2024/03/05 02:43:26;;;;;;;2.33;0.70;;;;;;;4.69;100.00;99818.69;4974503;28;20030;-69
2024/03/05 02:45:51;;;;;;;3.05;0.70;;;;;;;4.68;100.00;99816.19;4993102;28;20030;-69
2024/03/05 02:48:17;;;;;;;3.58;0.77;;;;;;;4.65;100.00;99819.50;4998382;28;20038;-68
2024/03/05 02:50:43;;;;;;;1.83;0.80;;;;;;;4.63;100.00;99818.94;4997200;28;20468;-69
2024/03/05 02:53:08;;;;;;;3.10;0.80;;;;;;;4.59;100.00;99824.16;4993489;28;20114;-68
2024/03/05 02:55:38;;;;;;;3.72;0.88;;;;;;;4.58;100.00;99825.25;4978461;28;20089;-69
2024/03/05 02:58:03;;;;;;;2.42;0.77;;;;;;;4.55;100.00;99822.22;4977244;28;20420;-69
2024/03/05 03:00:29;;;;;;;3.85;1.00;;;;;;;4.52;100.00;99823.59;4981857;28;20037;-69
2024/03/05 03:02:54;;;;;;;2.08;0.85;;;;;;;4.47;100.00;99826.31;4981019;28;20034;-69
2024/03/05 03:05:22;;;;;;;3.63;0.77;;;;;;;4.46;100.00;99835.69;4997181;28;20034;-69
2024/03/05 03:07:48;;;;;;;4.10;1.00;;;;;;;4.42;100.00;99829.88;4995924;28;20086;-68
2024/03/05 03:10:14;;;;;;;3.00;0.80;;;;;;;4.42;100.00;99831.81;4993710;28;20035;-69
2024/03/05 03:12:39;;;;;;;4.00;0.80;;;;;;;4.36;100.00;99825.47;4992729;28;20033;-69
2024/03/05 03:15:06;;;;;;;6.40;1.00;;;;;;;4.33;100.00;99825.19;4984175;28;20030;-69
2024/03/05 03:17:32;;;;;;;3.58;0.88;;;;;;;4.30;100.00;99831.22;4965093;28;20031;-68
2024/03/05 03:19:58;;;;;;;2.28;0.80;;;;;;;4.23;100.00;99829.56;4993995;28;20102;-69
2024/03/05 03:22:23;;;;;;;3.30;1.00;;;;;;;4.19;100.00;99836.66;4976891;28;20034;-69
2024/03/05 03:24:49;;;;;;;4.43;0.90;;;;;;;4.17;100.00;99838.84;4996843;28;20023;-69
2024/03/05 03:27:14;;;;;;;1.58;0.60;;;;;;;4.17;100.00;99838.03;4979917;28;20042;-69
2024/03/05 03:29:40;;;;;;;4.72;0.77;;;;;;;4.11;100.00;99839.94;4996718;28;20055;-69
2024/03/05 03:32:10;;;;;;;4.65;1.08;;;;;;;4.04;100.00;99847.59;5007028;28;20077;-69
2024/03/05 03:34:36;;;;;;;2.47;0.63;;;;;;;3.98;100.00;99856.91;4985057;28;20031;-69
2024/03/05 03:37:02;;;;;;;3.33;0.80;;;;;;;3.95;100.00;99854.69;4996618;28;20031;-69
2024/03/05 03:39:27;;;;;;;2.50;0.80;;;;;;;3.92;100.00;99846.97;4993284;28;20394;-69
2024/03/05 03:41:53;;;;;;;3.13;0.70;;;;;;;3.85;100.00;99843.66;4985882;28;20038;-69
2024/03/05 03:44:20;;;;;;;1.45;0.73;;;;;;;3.80;100.00;99853.50;5005851;28;20030;-69
2024/03/05 03:46:46;;;;;;;3.42;1.23;;;;;;;3.75;100.00;99856.22;4974832;28;20035;-69
2024/03/05 03:49:11;;;;;;;2.80;0.88;;;;;;;3.69;100.00;99860.03;4979820;28;20030;-68
2024/03/05 03:51:38;;;;;;;1.77;0.77;;;;;;;3.67;100.00;99873.19;4995939;28;20030;-69
2024/03/05 03:54:04;;;;;;;2.75;0.77;;;;;;;3.61;100.00;99874.25;4980214;28;20434;-69
2024/03/05 03:56:30;;;;;;;4.25;1.02;;;;;;;3.52;100.00;99871.16;4995154;28;20031;-69
2024/03/05 03:58:56;;;;;;;2.40;1.13;;;;;;;3.51;100.00;99876.91;5000275;28;20463;-69
2024/03/05 04:01:22;;;;;;;1.80;0.60;;;;;;;3.46;100.00;99883.22;4978506;28;20043;-69
2024/03/05 04:03:48;;;;;;;4.43;0.70;;;;;;;3.42;100.00;99889.47;5010813;28;20038;-68
2024/03/05 04:06:14;;;;;;;2.67;0.95;;;;;;;3.36;100.00;99888.59;4964946;28;20041;-69
2024/03/05 04:08:40;;;;;;;4.07;0.93;;;;;;;3.31;100.00;99900.34;4992940;28;20047;-69
2024/03/05 04:11:06;;;;;;;3.38;0.90;;;;;;;3.30;100.00;99901.44;4976204;28;20514;-68
2024/03/05 04:13:31;;;;;;;1.95;0.68;;;;;;;3.28;100.00;99891.81;4993414;28;20080;-68
2024/03/05 04:15:59;;;;;;;4.53;1.00;;;;;;;3.26;100.00;99899.47;4963849;28;20069;-68
2024/03/05 04:18:25;;;;;;;4.85;0.90;;;;;;;3.21;100.00;99903.03;4976478;28;20499;-68
2024/03/05 04:20:51;;;;;;;3.92;0.93;;;;;;;3.18;100.00;99902.72;4992181;28;20034;-69
2024/03/05 04:23:17;;;;;;;4.25;0.80;;;;;;;3.17;100.00;99901.88;4991787;28;20066;-69
2024/03/05 04:25:43;;;;;;;4.25;1.15;;;;;;;3.14;100.00;99914.19;4993363;28;20462;-68
2024/03/05 04:28:12;;;;;;;2.65;0.70;;;;;;;3.11;100.00;99920.19;4995865;28;20061;-68
2024/03/05 04:30:38;;;;;;;4.60;1.00;;;;;;;3.13;100.00;99920.78;4995441;28;20042;-69
2024/03/05 04:33:09;;;;;;;5.32;1.08;;;;;;;3.10;100.00;99929.53;5011985;28;20486;-69
2024/03/05 04:35:37;;;;;;;3.78;0.73;;;;;;;3.12;100.00;99921.88;4979852;28;20121;-68
2024/03/05 04:38:06;;;;;;;1.60;0.60;;;;;;;3.09;100.00;99927.88;5007946;28;20507;-69
2024/03/05 04:40:35;;;;;;;3.08;0.80;;;;;;;3.10;100.00;99918.56;4962887;28;20026;-69
2024/03/05 04:43:00;;;;;;;3.13;0.70;;;;;;;3.11;100.00;99928.44;5004243;28;20037;-69
2024/03/05 04:45:26;;;;;;;3.72;0.70;;;;;;;3.05;100.00;99926.72;5011255;28;20411;-69
2024/03/05 04:47:51;;;;;;;3.55;0.50;;;;;;;3.09;100.00;99935.25;4960038;28;20035;-69
2024/03/05 04:50:17;;;;;;;4.68;0.82;;;;;;;3.07;100.00;99940.22;4978927;28;20113;-68
2024/03/05 04:52:44;;;;;;;4.50;1.35;;;;;;;3.06;100.00;99941.28;5006358;28;20035;-68
2024/03/05 04:55:10;;;;;;;3.13;0.85;;;;;;;3.05;100.00;99936.88;4976882;28;20034;-69
2024/03/05 04:57:35;;;;;;;2.10;0.60;;;;;;;3.04;100.00;99940.72;5008573;28;20043;-68
2024/03/05 05:00:01;;;;;;;2.42;0.73;;;;;;;2.98;100.00;99942.59;4978128;28;20383;-68
2024/03/05 05:02:26;;;;;;;2.38;0.70;;;;;;;2.93;100.00;99950.75;4992486;28;20092;-69
2024/03/05 05:04:52;;;;;;;4.30;0.73;;;;;;;2.90;100.00;99962.25;4994588;28;20053;-68
2024/03/05 05:07:23;;;;;;;3.30;0.77;;;;;;;2.90;100.00;99954.00;5001188;28;20088;-69
2024/03/05 05:09:49;;;;;;;1.17;0.50;;;;;;;2.83;100.00;99961.59;4979595;28;20040;-68
2024/03/05 05:12:14;;;;;;;5.13;0.88;;;;;;;2.83;100.00;99962.41;4991787;28;20041;-69
2024/03/05 05:14:40;;;;;;;3.22;0.80;;;;;;;2.77;100.00;99968.13;4963817;28;20030;-68
2024/03/05 05:17:05;;;;;;;1.48;0.70;;;;;;;2.75;100.00;99964.78;4978684;28;20026;-68
2024/03/05 05:19:31;;;;;;;1.92;0.82;;;;;;;2.72;100.00;99970.78;4992457;28;20058;-68
2024/03/05 05:21:57;;;;;;;2.45;0.85;;;;;;;2.65;100.00;99973.72;4954293;28;20041;-68
2024/03/05 05:24:23;;;;;;;6.50;0.80;;;;;;;2.65;100.00;99982.78;4996261;28;20034;-68
2024/03/05 05:26:48;;;;;;;1.48;0.60;;;;;;;2.65;100.00;99976.47;4975528;28;20098;-69
2024/03/05 05:29:14;;;;;;;3.20;0.77;;;;;;;2.61;100.00;99978.06;4976875;28;20042;-69
2024/03/05 05:31:40;;;;;;;2.33;0.77;;;;;;;2.59;100.00;99982.94;4994648;28;20402;-69
2024/03/05 05:34:05;;;;;;;1.65;0.57;;;;;;;2.57;100.00;99993.38;5007559;28;20038;-69
2024/03/05 05:36:31;;;;;;;1.70;0.80;;;;;;;2.49;100.00;99989.16;4970860;28;20031;-68
2024/03/05 05:38:58;;;;;;;3.92;0.82;;;;;;;2.52;100.00;99993.28;4991491;28;20031;-68
2024/03/05 05:41:24;;;;;;;2.35;0.57;;;;;;;2.50;100.00;100000.94;4974192;28;20164;-69
2024/03/05 05:43:50;;;;;;;3.58;0.68;;;;;;;2.49;100.00;99999.28;4976077;28;20027;-69
2024/03/05 05:46:16;;;;;;;3.97;1.02;;;;;;;2.47;100.00;100016.78;4971094;28;20395;-69
2024/03/05 05:48:42;;;;;;;3.08;1.23;;;;;;;2.44;100.00;100014.56;4977229;28;20046;-68
2024/03/05 05:51:10;;;;;;;2.22;0.70;;;;;;;2.49;100.00;100008.34;4975074;28;20052;-68
2024/03/05 05:53:36;;;;;;;1.70;0.95;;;;;;;2.44;100.00;100014.56;4978132;28;20053;-69
2024/03/05 05:56:02;;;;;;;3.13;0.80;;;;;;;2.43;100.00;100010.16;5007525;28;20556;-68
2024/03/05 05:58:27;;;;;;;3.50;0.90;;;;;;;2.39;100.00;100011.75;4962167;28;20022;-68
2024/03/05 06:00:53;;;;;;;2.05;0.75;;;;;;;2.36;100.00;100012.25;5001864;28;20093;-68
2024/03/05 06:03:19;;;;;;;1.52;0.82;;;;;;;2.33;100.00;100017.41;4962267;28;20089;-68
2024/03/05 06:05:46;;;;;;;4.90;1.00;;;;;;;2.30;100.00;100016.00;4978025;28;20034;-68
2024/03/05 06:08:13;;;;;;;4.13;1.27;;;;;;;2.32;100.00;100022.06;4978239;28;20030;-68
2024/03/05 06:10:41;;;;;;;3.38;0.60;;;;;;;2.30;100.00;100031.63;4975263;28;20031;-69
2024/03/05 06:13:06;;;;;;;6.30;0.82;;;;;;;2.30;100.00;100026.97;4976481;28;20484;-69
2024/03/05 06:15:33;;;;;;;1.85;0.77;;;;;;;2.28;100.00;100029.13;4978230;28;20031;-68
2024/03/05 06:18:00;;;;;;;5.97;0.80;;;;;;;2.26;100.00;100028.56;4993993;28;20041;-68
2024/03/05 06:20:28;;;;;;;7.38;3.50;;;;;;;2.19;100.00;100031.47;4985602;28;20022;-69
2024/03/05 06:22:54;;;;;;;3.72;1.92;;;;;;;2.17;100.00;100032.78;4994348;28;20082;-68
2024/03/05 06:25:21;;;;;;;4.50;1.70;;;;;;;2.14;100.00;100038.75;4975010;28;20038;-67
2024/03/05 06:27:46;;;;;;;4.32;1.80;;;;;;;2.16;100.00;100045.66;4990499;28;20529;-67
2024/03/05 06:30:17;;;;;;;4.82;1.92;;;;;;;2.17;100.00;100043.75;4994071;28;20030;-67
2024/03/05 06:32:48;;;;;;;4.30;1.45;;;;;;;2.14;100.00;100049.72;5006654;28;20059;-67
2024/03/05 06:35:14;;;;;;;4.53;1.50;;;;;;;2.10;100.00;100059.53;4975406;28;20503;-67
2024/03/05 06:37:40;;;;;;;2.53;1.75;;;;;;;2.11;100.00;100055.72;4974600;28;20026;-68
2024/03/05 06:40:09;;;;;;;7.32;1.70;;;;;;;2.11;100.00;100058.44;4973577;28;20385;-67
2024/03/05 06:42:41;;;;;;;4.25;1.52;;;;;;;2.14;100.00;100063.44;5015553;28;20045;-67
2024/03/05 06:45:14;;;;;;;4.90;1.33;;;;;;;2.06;100.00;100069.31;4997458;28;20045;-67
2024/03/05 06:47:44;;;;;;;4.95;1.23;;;;;;;2.06;100.00;100066.56;4981327;28;20038;-67
2024/03/05 06:50:19;;;;;;;6.07;1.30;;;;;;;1.99;100.00;100077.72;5006596;28;20031;-68
2024/03/05 06:58:16;;;;;;;3.35;1.50;;;;;;;2.00;100.00;100099.34;4983859;28;20033;-68
2024/03/05 07:00:44;;;;;;;3.28;1.42;;;;;;;1.98;100.00;100096.06;5019056;28;20034;-67
2024/03/05 07:03:12;;;;;;;3.25;1.33;;;;;;;1.96;100.00;100100.94;4949564;28;20026;-67
2024/03/05 07:05:37;;;;;;;2.58;1.20;;;;;;;2.01;100.00;100100.22;4982755;28;20105;-68
2024/03/05 07:08:05;;;;;;;4.10;1.38;;;;;;;2.01;100.00;100098.28;4998542;28;20073;-68
2024/03/05 07:10:33;;;;;;;3.55;1.70;;;;;;;2.08;100.00;100108.25;4994530;28;20101;-68
2024/03/05 07:12:59;;;;;;;5.72;1.52;;;;;;;2.10;100.00;100104.19;4994610;28;20484;-68
2024/03/05 07:15:25;;;;;;;4.10;1.13;;;;;;;2.15;100.00;100106.19;4964615;28;20031;-68
2024/03/05 07:17:50;;;;;;;2.72;1.00;;;;;;;2.19;100.00;100105.44;4980486;28;20399;-68
2024/03/05 07:20:18;;;;;;;6.40;1.50;;;;;;;2.26;100.00;100112.66;4993934;28;20027;-68
2024/03/05 07:22:46;;;;;;;2.95;0.93;;;;;;;2.31;100.00;100108.09;4963735;28;20571;-68
2024/03/05 07:25:11;;;;;;;3.63;1.10;;;;;;;2.38;100.00;100114.25;4977398;28;20097;-67
2024/03/05 07:27:39;;;;;;;5.00;1.45;;;;;;;2.47;100.00;100117.38;4979130;28;20030;-68
2024/03/05 07:30:10;;;;;;;2.08;1.30;;;;;;;2.54;100.00;100118.06;4998070;28;20048;-68
2024/03/05 07:32:35;;;;;;;5.72;1.40;;;;;;;2.62;100.00;100117.63;5025133;28;20038;-68
2024/03/05 07:35:02;;;;;;;5.32;1.20;;;;;;;2.72;100.00;100127.91;4979149;28;20030;-68
2024/03/05 07:37:27;;;;;;;6.40;1.30;;;;;;;2.82;100.00;100125.34;4977132;28;20037;-68
2024/03/05 07:39:53;;;;;;;5.30;1.20;;;;;;;2.91;100.00;100137.53;4957742;28;20038;-68
2024/03/05 07:42:18;;;;;;;4.07;1.60;;;;;;;3.02;100.00;100135.75;5014381;28;20537;-68
2024/03/05 07:44:44;;;;;;;3.70;0.95;;;;;;;3.12;100.00;100133.16;5002031;28;20049;-67
2024/03/05 07:47:09;;;;;;;6.57;1.55;;;;;;;3.20;100.00;100136.53;4979435;28;20494;-68
2024/03/05 07:49:34;;;;;;;6.55;1.35;;;;;;;3.26;100.00;100146.47;4995811;28;20030;-68
2024/03/05 07:52:00;;;;;;;4.05;1.13;;;;;;;3.32;100.00;100146.31;4979890;28;20130;-68
2024/03/05 07:54:25;;;;;;;2.53;1.50;;;;;;;3.39;100.00;100150.78;4993279;28;20027;-68
2024/03/05 07:56:51;;;;;;;4.60;1.30;;;;;;;3.40;100.00;100155.16;4978740;28;20030;-68
2024/03/05 07:59:17;;;;;;;2.05;1.00;;;;;;;3.46;100.00;100163.22;5002701;28;20037;-68
2024/03/05 08:01:42;;;;;;;3.03;1.30;;;;;;;3.43;100.00;100168.41;4995876;28;20038;-67
2024/03/05 08:04:08;;;;;;;3.60;1.70;;;;;;;3.48;100.00;100165.72;4976658;28;20034;-67
2024/03/05 08:06:33;;;;;;;2.55;1.20;;;;;;;3.48;100.00;100176.69;4981835;28;20076;-68
2024/03/05 08:08:59;;;;;;;6.95;1.40;;;;;;;3.50;100.00;100180.00;4979155;28;20396;-67
2024/03/05 08:11:24;;;;;;;3.97;1.30;;;;;;;3.53;100.00;100174.84;4959110;28;20050;-68
2024/03/05 08:13:50;;;;;;;5.00;1.35;;;;;;;3.60;100.00;100190.31;4995321;28;20030;-68
2024/03/05 08:16:16;;;;;;;3.08;1.20;;;;;;;3.67;100.00;100185.44;4996574;28;20030;-68
2024/03/05 08:18:41;;;;;;;2.13;1.10;;;;;;;3.75;100.00;100185.81;4994089;28;20038;-68
2024/03/05 08:21:07;;;;;;;3.90;1.20;;;;;;;3.86;100.00;100200.50;4978675;28;20093;-67
2024/03/05 08:23:32;;;;;;;4.03;1.33;;;;;;;3.98;100.00;100192.09;4991864;28;20429;-68
2024/03/05 08:25:58;;;;;;;1.88;1.10;;;;;;;4.10;100.00;100194.72;4994842;28;20038;-67
2024/03/05 08:28:24;;;;;;;6.00;1.58;;;;;;;4.22;100.00;100193.47;4959222;28;20047;-67
2024/03/05 08:30:49;;;;;;;3.38;1.40;;;;;;;4.33;100.00;100207.31;4992541;28;20081;-68
2024/03/05 08:33:19;;;;;;;7.65;1.50;;;;;;;4.47;100.00;100208.56;4994715;28;20034;-68
2024/03/05 08:35:45;;;;;;;4.88;1.42;;;;;;;4.62;100.00;100219.69;4963338;28;20030;-68
2024/03/05 08:38:12;;;;;;;5.40;1.65;;;;;;;4.76;100.00;100219.25;4978784;28;20495;-67
2024/03/05 08:40:37;;;;;;;5.63;1.70;;;;;;;4.91;100.00;100222.13;4994637;28;20121;-67
2024/03/05 08:43:03;;;;;;;5.05;1.70;;;;;;;5.06;100.00;100216.72;4962342;28;20033;-68
2024/03/05 08:45:28;;;;;;;5.82;1.70;;;;;;;5.22;100.00;100228.69;4994821;28;20050;-68
2024/03/05 08:47:54;;;;;;;5.10;1.80;;;;;;;5.39;100.00;100225.75;4994394;28;20387;-68
2024/03/05 08:50:20;;;;;;;5.93;2.00;;;;;;;5.58;100.00;100226.13;4990520;28;20037;-68
2024/03/05 08:52:46;;;;;;;9.02;1.90;;;;;;;5.77;100.00;100234.78;4973366;28;20030;-68
2024/03/05 08:55:13;;;;;;;7.95;1.95;;;;;;;5.99;100.00;100232.69;4963751;28;20041;-68
2024/03/05 08:57:39;;;;;;;8.35;2.22;;;;;;;6.21;100.00;100235.22;4959151;28;20022;-68
2024/03/05 09:00:06;;;;;;;9.88;2.60;;;;;;;6.41;100.00;100239.13;4976205;28;20037;-68
2024/03/05 09:02:32;;;;;;;6.82;2.00;;;;;;;6.58;100.00;100245.22;4991198;28;20052;-68
2024/03/05 09:04:58;;;;;;;7.47;1.90;;;;;;;6.74;100.00;100262.59;4976380;28;20034;-68
2024/03/05 09:07:23;;;;;;;6.88;1.92;;;;;;;6.90;100.00;100258.75;4979401;28;20057;-68
2024/03/05 09:09:50;;;;;;;7.45;1.60;;;;;;;7.05;100.00;100254.31;4977776;28;20031;-68
2024/03/05 09:12:15;;;;;;;8.60;1.33;;;;;;;7.19;100.00;100263.75;4994558;28;20053;-68
2024/03/05 09:14:42;;;;;;;8.30;2.60;;;;;;;7.32;100.00;100265.91;5010541;28;20035;-69
2024/03/05 09:17:09;;;;;;;8.38;1.73;;;;;;;7.47;100.00;100269.78;4996920;28;20069;-68
2024/03/05 09:19:35;;;;;;;8.20;1.60;;;;;;;7.61;100.00;100263.38;4995100;28;20080;-68
2024/03/05 09:22:04;;;;;;;6.05;1.60;;;;;;;7.77;100.00;100278.00;4974794;28;20035;-68
2024/03/05 09:24:30;;;;;;;6.40;1.83;;;;;;;7.95;100.00;100281.25;4993478;28;20034;-68
2024/03/05 09:26:55;;;;;;;8.48;1.17;;;;;;;8.11;100.00;100284.75;4978349;28;20074;-68
2024/03/05 09:29:21;;;;;;;16.40;1.70;;;;;;;8.24;100.00;100287.75;4982585;28;20048;-68
2024/03/05 09:31:46;;;;;;;6.05;1.50;;;;;;;8.37;100.00;100294.59;5004712;28;20050;-68
2024/03/05 09:34:12;;;;;;;8.48;1.65;;;;;;;8.49;100.00;100294.28;4974362;28;20086;-68
2024/03/05 09:36:39;;;;;;;4.95;1.27;;;;;;;8.61;100.00;100305.88;4954698;28;20027;-68
2024/03/05 09:39:09;;;;;;;8.20;1.52;;;;;;;8.70;100.00;100304.13;5022961;28;20053;-68
2024/03/05 09:41:40;;;;;;;7.57;1.38;;;;;;;8.79;100.00;100307.13;4966885;28;20033;-68
2024/03/05 09:44:05;;;;;;;9.48;1.60;;;;;;;8.89;100.00;100303.47;4977432;28;20026;-68
2024/03/05 09:46:31;;;;;;;12.00;2.10;;;;;;;8.95;100.00;100310.63;4974962;28;20033;-68
2024/03/05 09:48:56;;;;;;;13.98;1.65;;;;;;;9.06;100.00;100320.50;4990516;28;20031;-68
2024/03/05 09:51:22;;;;;;;10.65;1.70;;;;;;;9.16;100.00;100319.59;4958669;28;20019;-68
2024/03/05 09:53:50;;;;;;;6.43;1.52;;;;;;;9.26;100.00;100322.28;4976084;28;20022;-68
2024/03/05 09:56:16;;;;;;;12.38;1.90;;;;;;;9.35;100.00;100328.84;4974243;28;20031;-68
2024/03/05 09:58:41;;;;;;;13.57;2.20;;;;;;;9.44;100.00;100334.59;5006852;28;20062;-69
2024/03/05 10:01:07;;;;;;;8.05;1.98;;;;;;;9.50;100.00;100329.84;4958098;28;20451;-68
2024/03/05 10:03:37;;;;;;;10.70;1.50;;;;;;;9.55;100.00;100338.09;4988813;28;20038;-68
2024/03/05 10:06:09;;;;;;;9.43;1.60;;;;;;;9.62;100.00;100338.59;4973637;28;20026;-68
2024/03/05 10:08:34;;;;;;;14.07;1.60;;;;;;;9.70;100.00;100351.84;4993467;28;20372;-68
2024/03/05 10:11:00;;;;;;;12.57;1.77;;;;;;;9.73;100.00;100355.97;4993400;28;20092;-68
2024/03/05 10:13:33;;;;;;;5.85;1.27;;;;;;;9.75;100.00;100353.72;4977442;28;20387;-68
2024/03/05 10:16:24;;;;;;;10.02;1.75;;;;;;;9.78;100.00;100361.47;4977280;28;20030;-68
2024/03/05 10:18:50;;;;;;;14.73;1.83;;;;;;;9.83;100.00;100355.84;4993422;28;20101;-68
2024/03/05 10:21:18;;;;;;;11.55;1.50;;;;;;;9.93;100.00;100363.25;4991480;28;20177;-68
2024/03/05 10:23:45;;;;;;;14.90;1.60;;;;;;;10.02;100.00;100376.19;4975165;28;20038;-68
2024/03/05 10:26:21;;;;;;;8.10;1.15;;;;;;;10.11;100.00;100378.31;5026601;28;20045;-68
2024/03/05 10:28:46;;;;;;;10.85;1.98;;;;;;;10.18;100.00;100384.34;4974743;28;20034;-68
2024/03/05 10:31:22;;;;;;;8.25;1.45;;;;;;;10.16;100.00;100386.59;5010111;28;20572;-68
2024/03/05 10:33:48;;;;;;;9.52;1.27;;;;;;;10.15;100.00;100388.53;4968287;28;20147;-68
2024/03/05 10:36:42;;;;;;;13.77;1.58;;;;;;;10.08;100.00;100376.97;5002336;28;20106;-68
2024/03/05 10:39:08;;;;;;;8.30;1.08;;;;;;;9.98;100.00;100380.69;4996998;28;20041;-68
2024/03/05 10:41:37;;;;;;;7.95;1.00;;;;;;;9.91;100.00;100387.69;4985729;28;20030;-68
2024/03/05 10:44:03;;;;;;;7.43;1.40;;;;;;;9.75;100.00;100387.84;4991059;28;20018;-68
2024/03/05 10:46:29;;;;;;;12.13;1.23;;;;;;;9.69;100.00;100388.16;4994870;28;20057;-69
2024/03/05 10:48:59;;;;;;;11.40;1.38;;;;;;;9.56;100.00;100393.28;4993224;28;20110;-68
2024/03/05 10:51:45;;;;;;;12.73;1.50;;;;;;;9.47;100.00;100396.94;4960036;28;20096;-68
2024/03/05 10:54:10;;;;;;;11.32;1.85;;;;;;;9.40;100.00;100391.75;4980567;28;20042;-68
2024/03/05 10:56:36;;;;;;;9.70;1.50;;;;;;;9.34;100.00;100399.28;4956231;28;20049;-67
2024/03/05 11:01:45;;;;;;;10.48;1.23;;;;;;;9.23;100.00;100400.47;4998023;28;20068;-68
2024/03/05 11:04:14;;;;;;;9.02;1.65;;;;;;;9.22;100.00;100403.50;4996579;28;20027;-68
2024/03/05 11:06:45;;;;;;;8.65;1.60;;;;;;;9.18;100.00;100404.09;4982810;28;20426;-68
2024/03/05 11:09:10;;;;;;;7.85;1.25;;;;;;;9.20;100.00;100405.75;4997555;28;20538;-68
2024/03/05 11:11:43;;;;;;;7.82;2.00;;;;;;;9.21;100.00;100410.16;4977825;28;20030;-68
2024/03/05 11:14:10;;;;;;;;;;;;;;;9.22;100.00;100414.59;4992445;28;20041;-68
2024/03/05 11:16:35;;;;;;;11.18;1.88;;;;;;;9.23;100.00;100408.78;4997492;28;19969;-68
2024/03/05 11:19:05;;;;;;;12.05;1.80;;;;;;;9.26;100.00;100415.69;4994759;28;20552;-68
2024/03/05 11:21:31;;;;;;;6.93;1.40;;;;;;;9.26;100.00;100410.97;4977655;28;20113;-68
2024/03/05 11:23:57;;;;;;;8.60;1.63;;;;;;;9.27;100.00;100411.78;4985539;28;20699;-68
2024/03/05 11:26:24;;;;;;;11.93;2.67;;;;;;;9.27;100.00;100414.56;4977719;28;20039;-68
2024/03/05 11:28:52;;;;;;;12.75;3.03;;;;;;;9.28;100.00;100419.81;4976479;28;20126;-68
2024/03/05 11:31:18;;;;;;;12.45;2.33;;;;;;;9.31;100.00;100415.66;4992789;28;20063;-68
2024/03/05 11:33:44;;;;;;;9.38;2.67;;;;;;;9.28;100.00;100416.25;4985832;28;20034;-68